sensor_id;sensor_type;location;lat;lon;timestamp;P1;durP1;ratioP1;P2;durP2;ratioP2
71562;SDS011;59391;52.504;13.438;2024-02-04T00:01:51;10.77;;;3.37;;
71562;SDS011;59391;52.504;13.438;2024-02-04T00:04:17;13.88;;;4.03;;
71562;SDS011;59391;52.504;13.438;2024-02-04T00:06:43;8.50;;;3.23;;
71562;SDS011;59391;52.504;13.438;2024-02-04T00:09:08;7.78;;;3.20;;
71562;SDS011;59391;52.504;13.438;2024-02-04T00:11:34;7.80;;;3.17;;
71562;SDS011;59391;52.504;13.438;2024-02-04T00:14:00;9.73;;;3.63;;
71562;SDS011;59391;52.504;13.438;2024-02-04T00:16:26;9.25;;;3.20;;
71562;SDS011;59391;52.504;13.438;2024-02-04T00:18:51;8.60;;;3.22;;
71562;SDS011;59391;52.504;13.438;2024-02-04T00:21:17;11.87;;;3.17;;
71562;SDS011;59391;52.504;13.438;2024-02-04T00:23:43;7.47;;;3.13;;
71562;SDS011;59391;52.504;13.438;2024-02-04T00:26:08;9.80;;;3.33;;
71562;SDS011;59391;52.504;13.438;2024-02-04T00:28:34;10.47;;;3.37;;
71562;SDS011;59391;52.504;13.438;2024-02-04T00:30:59;9.38;;;3.47;;
71562;SDS011;59391;52.504;13.438;2024-02-04T00:33:25;13.07;;;4.40;;
71562;SDS011;59391;52.504;13.438;2024-02-04T00:35:50;12.25;;;3.60;;
71562;SDS011;59391;52.504;13.438;2024-02-04T00:38:16;7.23;;;3.10;;
71562;SDS011;59391;52.504;13.438;2024-02-04T00:40:42;9.45;;;3.88;;
71562;SDS011;59391;52.504;13.438;2024-02-04T00:43:08;8.87;;;3.20;;
71562;SDS011;59391;52.504;13.438;2024-02-04T00:45:33;9.63;;;3.90;;
71562;SDS011;59391;52.504;13.438;2024-02-04T00:47:59;10.93;;;3.72;;
71562;SDS011;59391;52.504;13.438;2024-02-04T00:50:25;8.73;;;3.75;;
71562;SDS011;59391;52.504;13.438;2024-02-04T00:52:50;11.32;;;3.13;;
71562;SDS011;59391;52.504;13.438;2024-02-04T00:55:18;12.13;;;3.30;;
71562;SDS011;59391;52.504;13.438;2024-02-04T00:57:44;9.50;;;3.33;;
71562;SDS011;59391;52.504;13.438;2024-02-04T01:00:10;13.68;;;3.60;;
71562;SDS011;59391;52.504;13.438;2024-02-04T01:02:37;13.88;;;4.13;;
71562;SDS011;59391;52.504;13.438;2024-02-04T01:05:04;8.40;;;2.80;;
71562;SDS011;59391;52.504;13.438;2024-02-04T01:07:30;11.23;;;3.53;;
71562;SDS011;59391;52.504;13.438;2024-02-04T01:09:56;13.27;;;3.75;;
71562;SDS011;59391;52.504;13.438;2024-02-04T01:12:22;11.30;;;3.40;;
71562;SDS011;59391;52.504;13.438;2024-02-04T01:14:47;12.90;;;3.20;;
71562;SDS011;59391;52.504;13.438;2024-02-04T01:17:13;11.75;;;3.15;;
71562;SDS011;59391;52.504;13.438;2024-02-04T01:19:38;15.13;;;3.60;;
71562;SDS011;59391;52.504;13.438;2024-02-04T01:22:04;11.05;;;3.08;;
71562;SDS011;59391;52.504;13.438;2024-02-04T01:24:30;10.57;;;3.30;;
71562;SDS011;59391;52.504;13.438;2024-02-04T01:26:56;18.48;;;3.90;;
71562;SDS011;59391;52.504;13.438;2024-02-04T01:29:22;9.07;;;3.03;;
71562;SDS011;59391;52.504;13.438;2024-02-04T01:31:48;9.13;;;2.60;;
71562;SDS011;59391;52.504;13.438;2024-02-04T01:34:13;12.00;;;3.80;;
71562;SDS011;59391;52.504;13.438;2024-02-04T01:36:39;15.10;;;4.05;;
71562;SDS011;59391;52.504;13.438;2024-02-04T01:39:04;9.77;;;3.10;;
71562;SDS011;59391;52.504;13.438;2024-02-04T01:41:30;8.95;;;3.35;;
71562;SDS011;59391;52.504;13.438;2024-02-04T01:43:56;9.67;;;3.27;;
71562;SDS011;59391;52.504;13.438;2024-02-04T01:46:21;13.05;;;3.58;;
71562;SDS011;59391;52.504;13.438;2024-02-04T01:48:47;13.63;;;3.50;;
71562;SDS011;59391;52.504;13.438;2024-02-04T01:51:14;13.05;;;4.22;;
71562;SDS011;59391;52.504;13.438;2024-02-04T01:53:42;12.15;;;3.70;;
71562;SDS011;59391;52.504;13.438;2024-02-04T01:56:11;10.75;;;3.50;;
71562;SDS011;59391;52.504;13.438;2024-02-04T01:58:38;11.15;;;3.75;;
71562;SDS011;59391;52.504;13.438;2024-02-04T02:01:05;9.60;;;3.65;;
71562;SDS011;59391;52.504;13.438;2024-02-04T02:03:33;10.00;;;3.58;;
71562;SDS011;59391;52.504;13.438;2024-02-04T02:06:00;12.25;;;3.60;;
71562;SDS011;59391;52.504;13.438;2024-02-04T02:08:26;11.93;;;4.33;;
71562;SDS011;59391;52.504;13.438;2024-02-04T02:10:55;8.85;;;3.25;;
71562;SDS011;59391;52.504;13.438;2024-02-04T02:13:30;12.27;;;4.10;;
71562;SDS011;59391;52.504;13.438;2024-02-04T02:16:13;11.02;;;3.60;;
71562;SDS011;59391;52.504;13.438;2024-02-04T02:18:45;10.40;;;3.22;;
71562;SDS011;59391;52.504;13.438;2024-02-04T02:24:32;13.30;;;3.92;;
71562;SDS011;59391;52.504;13.438;2024-02-04T02:27:00;12.02;;;3.80;;
71562;SDS011;59391;52.504;13.438;2024-02-04T02:29:26;8.87;;;3.70;;
71562;SDS011;59391;52.504;13.438;2024-02-04T02:31:52;10.77;;;3.80;;
71562;SDS011;59391;52.504;13.438;2024-02-04T02:34:17;10.23;;;3.50;;
71562;SDS011;59391;52.504;13.438;2024-02-04T02:36:53;13.48;;;3.80;;
71562;SDS011;59391;52.504;13.438;2024-02-04T02:39:30;7.93;;;3.67;;
71562;SDS011;59391;52.504;13.438;2024-02-04T02:42:04;9.65;;;3.42;;
71562;SDS011;59391;52.504;13.438;2024-02-04T02:44:31;11.57;;;4.30;;
71562;SDS011;59391;52.504;13.438;2024-02-04T02:46:59;11.15;;;3.38;;
71562;SDS011;59391;52.504;13.438;2024-02-04T02:49:27;11.20;;;3.67;;
71562;SDS011;59391;52.504;13.438;2024-02-04T02:51:53;9.30;;;3.50;;
71562;SDS011;59391;52.504;13.438;2024-02-04T02:54:19;8.80;;;3.70;;
71562;SDS011;59391;52.504;13.438;2024-02-04T02:56:44;14.00;;;3.37;;
71562;SDS011;59391;52.504;13.438;2024-02-04T02:59:10;12.17;;;3.80;;
71562;SDS011;59391;52.504;13.438;2024-02-04T03:01:38;10.15;;;3.35;;
71562;SDS011;59391;52.504;13.438;2024-02-04T03:04:05;13.50;;;3.40;;
71562;SDS011;59391;52.504;13.438;2024-02-04T03:06:31;12.37;;;3.63;;
71562;SDS011;59391;52.504;13.438;2024-02-04T03:08:56;11.68;;;3.90;;
71562;SDS011;59391;52.504;13.438;2024-02-04T03:11:22;9.47;;;3.60;;
71562;SDS011;59391;52.504;13.438;2024-02-04T03:13:47;13.80;;;4.15;;
71562;SDS011;59391;52.504;13.438;2024-02-04T03:16:13;12.43;;;3.90;;
71562;SDS011;59391;52.504;13.438;2024-02-04T03:18:39;9.47;;;3.83;;
71562;SDS011;59391;52.504;13.438;2024-02-04T03:21:13;8.98;;;4.25;;
71562;SDS011;59391;52.504;13.438;2024-02-04T03:23:41;14.40;;;4.22;;
71562;SDS011;59391;52.504;13.438;2024-02-04T03:26:08;12.63;;;3.63;;
71562;SDS011;59391;52.504;13.438;2024-02-04T03:28:34;11.02;;;4.00;;
71562;SDS011;59391;52.504;13.438;2024-02-04T03:31:00;10.53;;;4.07;;
71562;SDS011;59391;52.504;13.438;2024-02-04T03:33:26;15.32;;;4.53;;
71562;SDS011;59391;52.504;13.438;2024-02-04T03:35:51;10.10;;;4.37;;
71562;SDS011;59391;52.504;13.438;2024-02-04T03:38:17;11.38;;;4.30;;
71562;SDS011;59391;52.504;13.438;2024-02-04T03:40:43;9.70;;;3.83;;
71562;SDS011;59391;52.504;13.438;2024-02-04T03:43:09;11.40;;;4.25;;
71562;SDS011;59391;52.504;13.438;2024-02-04T03:45:35;9.88;;;4.07;;
71562;SDS011;59391;52.504;13.438;2024-02-04T03:48:01;8.53;;;3.23;;
71562;SDS011;59391;52.504;13.438;2024-02-04T03:50:27;11.15;;;4.00;;
71562;SDS011;59391;52.504;13.438;2024-02-04T03:52:53;10.67;;;4.27;;
71562;SDS011;59391;52.504;13.438;2024-02-04T03:55:19;10.82;;;3.45;;
71562;SDS011;59391;52.504;13.438;2024-02-04T03:57:44;8.70;;;4.07;;
71562;SDS011;59391;52.504;13.438;2024-02-04T04:00:10;10.45;;;3.75;;
71562;SDS011;59391;52.504;13.438;2024-02-04T04:02:37;10.07;;;4.10;;
71562;SDS011;59391;52.504;13.438;2024-02-04T04:05:02;10.77;;;4.10;;
71562;SDS011;59391;52.504;13.438;2024-02-04T04:07:29;10.88;;;4.53;;
71562;SDS011;59391;52.504;13.438;2024-02-04T04:09:55;10.13;;;3.80;;
71562;SDS011;59391;52.504;13.438;2024-02-04T04:12:21;8.98;;;4.05;;
71562;SDS011;59391;52.504;13.438;2024-02-04T04:14:46;8.37;;;3.70;;
71562;SDS011;59391;52.504;13.438;2024-02-04T04:17:12;11.05;;;3.80;;
71562;SDS011;59391;52.504;13.438;2024-02-04T04:19:38;9.13;;;4.33;;
71562;SDS011;59391;52.504;13.438;2024-02-04T04:22:04;10.40;;;3.92;;
71562;SDS011;59391;52.504;13.438;2024-02-04T04:24:30;6.93;;;3.67;;
71562;SDS011;59391;52.504;13.438;2024-02-04T04:26:55;11.55;;;4.40;;
71562;SDS011;59391;52.504;13.438;2024-02-04T04:29:21;10.17;;;3.53;;
71562;SDS011;59391;52.504;13.438;2024-02-04T04:31:47;9.40;;;3.60;;
71562;SDS011;59391;52.504;13.438;2024-02-04T04:34:13;11.83;;;3.80;;
71562;SDS011;59391;52.504;13.438;2024-02-04T04:36:39;8.50;;;3.70;;
71562;SDS011;59391;52.504;13.438;2024-02-04T04:39:04;10.87;;;4.00;;
71562;SDS011;59391;52.504;13.438;2024-02-04T04:41:30;9.00;;;3.83;;
71562;SDS011;59391;52.504;13.438;2024-02-04T04:43:56;8.73;;;3.93;;
71562;SDS011;59391;52.504;13.438;2024-02-04T04:46:22;8.57;;;3.45;;
71562;SDS011;59391;52.504;13.438;2024-02-04T04:48:47;10.15;;;3.75;;
71562;SDS011;59391;52.504;13.438;2024-02-04T04:51:13;9.10;;;3.72;;
71562;SDS011;59391;52.504;13.438;2024-02-04T04:53:38;8.73;;;3.77;;
71562;SDS011;59391;52.504;13.438;2024-02-04T04:56:04;8.85;;;3.45;;
71562;SDS011;59391;52.504;13.438;2024-02-04T04:58:31;8.02;;;3.33;;
71562;SDS011;59391;52.504;13.438;2024-02-04T05:00:57;10.63;;;3.72;;
71562;SDS011;59391;52.504;13.438;2024-02-04T05:03:31;6.53;;;3.43;;
71562;SDS011;59391;52.504;13.438;2024-02-04T05:05:57;9.70;;;3.65;;
71562;SDS011;59391;52.504;13.438;2024-02-04T05:08:23;10.30;;;3.65;;
71562;SDS011;59391;52.504;13.438;2024-02-04T05:10:49;6.72;;;3.45;;
71562;SDS011;59391;52.504;13.438;2024-02-04T05:13:14;8.50;;;3.38;;
71562;SDS011;59391;52.504;13.438;2024-02-04T05:15:40;10.10;;;4.00;;
71562;SDS011;59391;52.504;13.438;2024-02-04T05:18:06;8.03;;;3.00;;
71562;SDS011;59391;52.504;13.438;2024-02-04T05:20:31;8.60;;;3.45;;
71562;SDS011;59391;52.504;13.438;2024-02-04T05:22:57;7.73;;;3.47;;
71562;SDS011;59391;52.504;13.438;2024-02-04T05:25:23;9.20;;;3.40;;
71562;SDS011;59391;52.504;13.438;2024-02-04T05:27:50;6.28;;;3.42;;
71562;SDS011;59391;52.504;13.438;2024-02-04T05:30:16;10.25;;;3.40;;
71562;SDS011;59391;52.504;13.438;2024-02-04T05:32:41;8.77;;;3.45;;
71562;SDS011;59391;52.504;13.438;2024-02-04T05:35:09;8.75;;;3.40;;
71562;SDS011;59391;52.504;13.438;2024-02-04T05:37:38;7.50;;;3.10;;
71562;SDS011;59391;52.504;13.438;2024-02-04T05:40:03;12.35;;;3.95;;
71562;SDS011;59391;52.504;13.438;2024-02-04T05:42:30;6.43;;;3.33;;
71562;SDS011;59391;52.504;13.438;2024-02-04T05:44:56;8.20;;;3.50;;
71562;SDS011;59391;52.504;13.438;2024-02-04T05:47:23;9.70;;;3.55;;
71562;SDS011;59391;52.504;13.438;2024-02-04T05:49:49;9.65;;;4.10;;
71562;SDS011;59391;52.504;13.438;2024-02-04T05:52:15;9.23;;;3.77;;
71562;SDS011;59391;52.504;13.438;2024-02-04T05:54:40;7.53;;;3.40;;
71562;SDS011;59391;52.504;13.438;2024-02-04T05:57:06;10.30;;;3.40;;
71562;SDS011;59391;52.504;13.438;2024-02-04T05:59:33;10.45;;;3.67;;
71562;SDS011;59391;52.504;13.438;2024-02-04T06:01:59;6.30;;;2.97;;
71562;SDS011;59391;52.504;13.438;2024-02-04T06:04:25;7.20;;;3.50;;
71562;SDS011;59391;52.504;13.438;2024-02-04T06:06:50;7.18;;;3.28;;
71562;SDS011;59391;52.504;13.438;2024-02-04T06:09:16;8.17;;;3.70;;
71562;SDS011;59391;52.504;13.438;2024-02-04T06:11:44;8.50;;;3.85;;
71562;SDS011;59391;52.504;13.438;2024-02-04T06:14:12;11.17;;;3.70;;
71562;SDS011;59391;52.504;13.438;2024-02-04T06:16:38;7.93;;;3.60;;
71562;SDS011;59391;52.504;13.438;2024-02-04T06:19:04;8.73;;;4.20;;
71562;SDS011;59391;52.504;13.438;2024-02-04T06:21:30;6.78;;;3.25;;
71562;SDS011;59391;52.504;13.438;2024-02-04T06:23:56;7.63;;;3.43;;
71562;SDS011;59391;52.504;13.438;2024-02-04T06:26:21;9.77;;;3.77;;
71562;SDS011;59391;52.504;13.438;2024-02-04T06:28:47;8.90;;;3.65;;
71562;SDS011;59391;52.504;13.438;2024-02-04T06:31:13;7.70;;;3.47;;
71562;SDS011;59391;52.504;13.438;2024-02-04T06:33:39;8.47;;;3.83;;
71562;SDS011;59391;52.504;13.438;2024-02-04T06:36:08;10.85;;;3.85;;
71562;SDS011;59391;52.504;13.438;2024-02-04T06:38:35;8.98;;;4.15;;
71562;SDS011;59391;52.504;13.438;2024-02-04T06:41:01;7.47;;;3.65;;
71562;SDS011;59391;52.504;13.438;2024-02-04T06:43:26;10.30;;;3.95;;
71562;SDS011;59391;52.504;13.438;2024-02-04T06:45:52;10.13;;;4.10;;
71562;SDS011;59391;52.504;13.438;2024-02-04T06:48:20;8.05;;;4.10;;
71562;SDS011;59391;52.504;13.438;2024-02-04T06:50:46;9.33;;;4.20;;
71562;SDS011;59391;52.504;13.438;2024-02-04T06:53:13;8.55;;;4.55;;
71562;SDS011;59391;52.504;13.438;2024-02-04T06:55:39;13.13;;;4.72;;
71562;SDS011;59391;52.504;13.438;2024-02-04T06:58:05;9.07;;;4.97;;
71562;SDS011;59391;52.504;13.438;2024-02-04T07:00:31;9.53;;;4.40;;
71562;SDS011;59391;52.504;13.438;2024-02-04T07:02:56;10.27;;;4.80;;
71562;SDS011;59391;52.504;13.438;2024-02-04T07:05:22;12.60;;;4.77;;
71562;SDS011;59391;52.504;13.438;2024-02-04T07:07:48;10.55;;;4.75;;
71562;SDS011;59391;52.504;13.438;2024-02-04T07:10:14;11.20;;;4.57;;
71562;SDS011;59391;52.504;13.438;2024-02-04T07:12:41;9.73;;;4.68;;
71562;SDS011;59391;52.504;13.438;2024-02-04T07:15:07;10.60;;;4.65;;
71562;SDS011;59391;52.504;13.438;2024-02-04T07:17:33;10.98;;;4.90;;
71562;SDS011;59391;52.504;13.438;2024-02-04T07:20:00;10.13;;;5.10;;
71562;SDS011;59391;52.504;13.438;2024-02-04T07:22:27;10.52;;;5.25;;
71562;SDS011;59391;52.504;13.438;2024-02-04T07:24:53;12.60;;;5.13;;
71562;SDS011;59391;52.504;13.438;2024-02-04T07:27:18;10.43;;;4.97;;
71562;SDS011;59391;52.504;13.438;2024-02-04T07:29:44;10.55;;;4.85;;
71562;SDS011;59391;52.504;13.438;2024-02-04T07:32:12;9.10;;;5.10;;
71562;SDS011;59391;52.504;13.438;2024-02-04T07:34:40;10.02;;;5.03;;
71562;SDS011;59391;52.504;13.438;2024-02-04T07:37:06;12.00;;;5.05;;
71562;SDS011;59391;52.504;13.438;2024-02-04T07:39:32;14.17;;;5.30;;
71562;SDS011;59391;52.504;13.438;2024-02-04T07:41:57;13.18;;;5.55;;
71562;SDS011;59391;52.504;13.438;2024-02-04T07:44:25;14.82;;;5.55;;
71562;SDS011;59391;52.504;13.438;2024-02-04T07:46:54;11.17;;;5.20;;
71562;SDS011;59391;52.504;13.438;2024-02-04T07:49:20;11.35;;;5.25;;
71562;SDS011;59391;52.504;13.438;2024-02-04T07:51:46;12.70;;;5.07;;
71562;SDS011;59391;52.504;13.438;2024-02-04T07:54:12;12.43;;;5.13;;
71562;SDS011;59391;52.504;13.438;2024-02-04T07:56:38;14.48;;;6.03;;
71562;SDS011;59391;52.504;13.438;2024-02-04T07:59:04;10.07;;;5.27;;
71562;SDS011;59391;52.504;13.438;2024-02-04T08:01:29;11.20;;;4.72;;
71562;SDS011;59391;52.504;13.438;2024-02-04T08:03:55;10.90;;;4.73;;
71562;SDS011;59391;52.504;13.438;2024-02-04T08:06:21;12.45;;;5.18;;
71562;SDS011;59391;52.504;13.438;2024-02-04T08:08:47;11.98;;;5.20;;
71562;SDS011;59391;52.504;13.438;2024-02-04T08:11:16;10.33;;;5.37;;
71562;SDS011;59391;52.504;13.438;2024-02-04T08:13:46;11.07;;;4.85;;
71562;SDS011;59391;52.504;13.438;2024-02-04T08:16:12;11.98;;;5.30;;
71562;SDS011;59391;52.504;13.438;2024-02-04T08:18:37;11.50;;;5.07;;
71562;SDS011;59391;52.504;13.438;2024-02-04T08:21:04;10.57;;;5.47;;
71562;SDS011;59391;52.504;13.438;2024-02-04T08:23:30;12.68;;;5.60;;
71562;SDS011;59391;52.504;13.438;2024-02-04T08:25:56;11.47;;;4.97;;
71562;SDS011;59391;52.504;13.438;2024-02-04T08:28:22;13.52;;;4.78;;
71562;SDS011;59391;52.504;13.438;2024-02-04T08:30:49;13.88;;;4.75;;
71562;SDS011;59391;52.504;13.438;2024-02-04T08:33:15;9.57;;;4.78;;
71562;SDS011;59391;52.504;13.438;2024-02-04T08:35:40;9.33;;;4.07;;
71562;SDS011;59391;52.504;13.438;2024-02-04T08:38:06;10.23;;;4.75;;
71562;SDS011;59391;52.504;13.438;2024-02-04T08:40:32;8.48;;;4.72;;
71562;SDS011;59391;52.504;13.438;2024-02-04T08:42:57;7.88;;;4.00;;
71562;SDS011;59391;52.504;13.438;2024-02-04T08:45:23;12.33;;;4.53;;
71562;SDS011;59391;52.504;13.438;2024-02-04T08:47:49;8.20;;;4.53;;
71562;SDS011;59391;52.504;13.438;2024-02-04T08:50:15;10.90;;;4.40;;
71562;SDS011;59391;52.504;13.438;2024-02-04T08:52:40;7.80;;;3.90;;
71562;SDS011;59391;52.504;13.438;2024-02-04T08:55:06;10.90;;;4.40;;
71562;SDS011;59391;52.504;13.438;2024-02-04T08:57:32;8.27;;;4.07;;
71562;SDS011;59391;52.504;13.438;2024-02-04T08:59:57;9.60;;;4.10;;
71562;SDS011;59391;52.504;13.438;2024-02-04T09:02:23;11.27;;;3.90;;
71562;SDS011;59391;52.504;13.438;2024-02-04T09:04:49;9.48;;;4.20;;
71562;SDS011;59391;52.504;13.438;2024-02-04T09:07:14;10.60;;;4.40;;
71562;SDS011;59391;52.504;13.438;2024-02-04T09:09:40;11.25;;;4.03;;
71562;SDS011;59391;52.504;13.438;2024-02-04T09:12:07;10.82;;;4.28;;
71562;SDS011;59391;52.504;13.438;2024-02-04T09:14:34;11.40;;;4.13;;
71562;SDS011;59391;52.504;13.438;2024-02-04T09:17:03;9.05;;;4.30;;
71562;SDS011;59391;52.504;13.438;2024-02-04T09:19:32;13.40;;;3.75;;
71562;SDS011;59391;52.504;13.438;2024-02-04T09:21:58;8.10;;;4.07;;
71562;SDS011;59391;52.504;13.438;2024-02-04T09:24:26;9.27;;;3.60;;
71562;SDS011;59391;52.504;13.438;2024-02-04T09:26:52;10.32;;;3.60;;
71562;SDS011;59391;52.504;13.438;2024-02-04T09:29:18;11.47;;;3.90;;
71562;SDS011;59391;52.504;13.438;2024-02-04T09:31:44;9.07;;;4.03;;
71562;SDS011;59391;52.504;13.438;2024-02-04T09:34:11;10.65;;;3.80;;
71562;SDS011;59391;52.504;13.438;2024-02-04T09:36:36;9.75;;;3.67;;
71562;SDS011;59391;52.504;13.438;2024-02-04T09:39:02;9.73;;;3.60;;
71562;SDS011;59391;52.504;13.438;2024-02-04T09:41:28;6.80;;;3.50;;
71562;SDS011;59391;52.504;13.438;2024-02-04T09:43:54;9.17;;;3.23;;
71562;SDS011;59391;52.504;13.438;2024-02-04T09:46:22;6.88;;;2.85;;
71562;SDS011;59391;52.504;13.438;2024-02-04T09:48:48;9.07;;;3.70;;
71562;SDS011;59391;52.504;13.438;2024-02-04T09:51:16;10.23;;;3.35;;
71562;SDS011;59391;52.504;13.438;2024-02-04T09:53:44;6.93;;;3.00;;
71562;SDS011;59391;52.504;13.438;2024-02-04T09:56:11;9.15;;;3.45;;
71562;SDS011;59391;52.504;13.438;2024-02-04T09:58:39;10.55;;;3.40;;
71562;SDS011;59391;52.504;13.438;2024-02-04T10:01:04;7.88;;;3.25;;
71562;SDS011;59391;52.504;13.438;2024-02-04T10:03:32;6.75;;;3.42;;
71562;SDS011;59391;52.504;13.438;2024-02-04T10:05:58;8.30;;;3.40;;
71562;SDS011;59391;52.504;13.438;2024-02-04T10:08:24;8.00;;;3.17;;
71562;SDS011;59391;52.504;13.438;2024-02-04T10:10:50;6.68;;;2.78;;
71562;SDS011;59391;52.504;13.438;2024-02-04T10:13:16;8.27;;;2.90;;
71562;SDS011;59391;52.504;13.438;2024-02-04T10:15:45;8.27;;;2.90;;
71562;SDS011;59391;52.504;13.438;2024-02-04T10:18:12;9.43;;;3.10;;
71562;SDS011;59391;52.504;13.438;2024-02-04T10:20:38;7.72;;;2.70;;
71562;SDS011;59391;52.504;13.438;2024-02-04T10:23:04;5.90;;;2.63;;
71562;SDS011;59391;52.504;13.438;2024-02-04T10:25:30;7.17;;;2.70;;
71562;SDS011;59391;52.504;13.438;2024-02-04T10:27:56;8.48;;;2.63;;
71562;SDS011;59391;52.504;13.438;2024-02-04T10:30:23;7.13;;;2.60;;
71562;SDS011;59391;52.504;13.438;2024-02-04T10:32:52;7.40;;;2.65;;
71562;SDS011;59391;52.504;13.438;2024-02-04T10:35:22;6.40;;;2.27;;
71562;SDS011;59391;52.504;13.438;2024-02-04T10:37:52;8.57;;;2.67;;
71562;SDS011;59391;52.504;13.438;2024-02-04T10:40:17;6.75;;;2.60;;
71562;SDS011;59391;52.504;13.438;2024-02-04T10:42:44;5.30;;;2.53;;
71562;SDS011;59391;52.504;13.438;2024-02-04T10:45:11;7.28;;;2.65;;
71562;SDS011;59391;52.504;13.438;2024-02-04T10:47:39;6.60;;;2.53;;
71562;SDS011;59391;52.504;13.438;2024-02-04T10:50:06;8.10;;;2.70;;
71562;SDS011;59391;52.504;13.438;2024-02-04T10:52:36;6.30;;;2.83;;
71562;SDS011;59391;52.504;13.438;2024-02-04T10:55:16;5.82;;;2.65;;
71562;SDS011;59391;52.504;13.438;2024-02-04T10:57:50;5.05;;;2.60;;
71562;SDS011;59391;52.504;13.438;2024-02-04T11:00:16;9.57;;;2.57;;
71562;SDS011;59391;52.504;13.438;2024-02-04T11:02:45;6.20;;;2.60;;
71562;SDS011;59391;52.504;13.438;2024-02-04T11:05:13;9.00;;;2.67;;
71562;SDS011;59391;52.504;13.438;2024-02-04T11:07:42;6.55;;;2.65;;
71562;SDS011;59391;52.504;13.438;2024-02-04T11:10:10;7.47;;;2.63;;
71562;SDS011;59391;52.504;13.438;2024-02-04T11:12:36;8.07;;;2.90;;
71562;SDS011;59391;52.504;13.438;2024-02-04T11:15:07;6.28;;;2.97;;
71562;SDS011;59391;52.504;13.438;2024-02-04T11:26:31;6.43;;;2.60;;
71562;SDS011;59391;52.504;13.438;2024-02-04T11:28:58;5.28;;;2.63;;
71562;SDS011;59391;52.504;13.438;2024-02-04T11:31:23;7.13;;;2.97;;
71562;SDS011;59391;52.504;13.438;2024-02-04T11:33:54;5.78;;;3.00;;
71562;SDS011;59391;52.504;13.438;2024-02-04T11:36:24;7.60;;;3.25;;
71562;SDS011;59391;52.504;13.438;2024-02-04T11:38:50;6.70;;;2.72;;
71562;SDS011;59391;52.504;13.438;2024-02-04T11:41:23;7.03;;;2.88;;
71562;SDS011;59391;52.504;13.438;2024-02-04T11:43:55;7.90;;;2.87;;
71562;SDS011;59391;52.504;13.438;2024-02-04T11:46:21;6.60;;;2.85;;
71562;SDS011;59391;52.504;13.438;2024-02-04T11:48:53;6.07;;;2.90;;
71562;SDS011;59391;52.504;13.438;2024-02-04T11:51:22;4.78;;;3.08;;
71562;SDS011;59391;52.504;13.438;2024-02-04T11:53:49;7.15;;;2.90;;
71562;SDS011;59391;52.504;13.438;2024-02-04T11:56:23;8.30;;;2.75;;
71562;SDS011;59391;52.504;13.438;2024-02-04T11:58:50;7.35;;;2.70;;
71562;SDS011;59391;52.504;13.438;2024-02-04T12:01:16;7.13;;;3.22;;
71562;SDS011;59391;52.504;13.438;2024-02-04T12:03:42;8.90;;;3.17;;
71562;SDS011;59391;52.504;13.438;2024-02-04T12:06:08;5.68;;;3.00;;
71562;SDS011;59391;52.504;13.438;2024-02-04T12:08:35;5.93;;;3.17;;
71562;SDS011;59391;52.504;13.438;2024-02-04T12:11:02;7.13;;;2.92;;
71562;SDS011;59391;52.504;13.438;2024-02-04T12:13:29;7.38;;;2.92;;
71562;SDS011;59391;52.504;13.438;2024-02-04T12:15:57;10.30;;;3.15;;
71562;SDS011;59391;52.504;13.438;2024-02-04T12:18:22;8.70;;;3.30;;
71562;SDS011;59391;52.504;13.438;2024-02-04T12:20:48;9.82;;;2.97;;
71562;SDS011;59391;52.504;13.438;2024-02-04T12:23:14;8.85;;;2.70;;
71562;SDS011;59391;52.504;13.438;2024-02-04T12:25:41;6.53;;;3.45;;
71562;SDS011;59391;52.504;13.438;2024-02-04T12:28:07;6.68;;;2.97;;
71562;SDS011;59391;52.504;13.438;2024-02-04T12:30:33;9.20;;;3.38;;
71562;SDS011;59391;52.504;13.438;2024-02-04T12:33:00;7.00;;;3.00;;
71562;SDS011;59391;52.504;13.438;2024-02-04T12:35:30;6.57;;;3.22;;
71562;SDS011;59391;52.504;13.438;2024-02-04T12:37:57;6.32;;;2.97;;
71562;SDS011;59391;52.504;13.438;2024-02-04T12:40:28;7.60;;;3.50;;
71562;SDS011;59391;52.504;13.438;2024-02-04T12:42:59;7.00;;;2.60;;
71562;SDS011;59391;52.504;13.438;2024-02-04T12:45:26;8.00;;;2.83;;
71562;SDS011;59391;52.504;13.438;2024-02-04T12:47:57;7.53;;;3.55;;
71562;SDS011;59391;52.504;13.438;2024-02-04T12:50:24;5.65;;;2.60;;
71562;SDS011;59391;52.504;13.438;2024-02-04T12:55:33;7.97;;;3.00;;
71562;SDS011;59391;52.504;13.438;2024-02-04T12:58:02;6.68;;;2.90;;
71562;SDS011;59391;52.504;13.438;2024-02-04T13:00:37;8.93;;;3.10;;
71562;SDS011;59391;52.504;13.438;2024-02-04T13:03:04;8.60;;;2.97;;
71562;SDS011;59391;52.504;13.438;2024-02-04T13:05:33;7.70;;;3.05;;
71562;SDS011;59391;52.504;13.438;2024-02-04T13:07:59;8.33;;;3.00;;
71562;SDS011;59391;52.504;13.438;2024-02-04T13:10:34;6.70;;;2.92;;
71562;SDS011;59391;52.504;13.438;2024-02-04T13:13:02;10.85;;;3.35;;
71562;SDS011;59391;52.504;13.438;2024-02-04T13:15:30;8.13;;;3.08;;
71562;SDS011;59391;52.504;13.438;2024-02-04T13:17:58;6.63;;;2.70;;
71562;SDS011;59391;52.504;13.438;2024-02-04T13:20:24;5.30;;;2.30;;
71562;SDS011;59391;52.504;13.438;2024-02-04T13:22:51;8.02;;;3.10;;
71562;SDS011;59391;52.504;13.438;2024-02-04T13:25:18;6.78;;;2.97;;
71562;SDS011;59391;52.504;13.438;2024-02-04T13:27:46;7.78;;;2.70;;
71562;SDS011;59391;52.504;13.438;2024-02-04T13:30:22;8.18;;;3.10;;
71562;SDS011;59391;52.504;13.438;2024-02-04T13:32:48;7.87;;;2.90;;
71562;SDS011;59391;52.504;13.438;2024-02-04T13:35:13;5.72;;;2.60;;
71562;SDS011;59391;52.504;13.438;2024-02-04T13:37:42;8.02;;;2.88;;
71562;SDS011;59391;52.504;13.438;2024-02-04T13:40:16;9.67;;;2.93;;
71562;SDS011;59391;52.504;13.438;2024-02-04T13:42:45;9.68;;;3.22;;
71562;SDS011;59391;52.504;13.438;2024-02-04T13:45:12;7.05;;;2.90;;
71562;SDS011;59391;52.504;13.438;2024-02-04T13:47:41;7.18;;;2.90;;
71562;SDS011;59391;52.504;13.438;2024-02-04T13:50:08;6.07;;;2.33;;
71562;SDS011;59391;52.504;13.438;2024-02-04T13:52:35;8.07;;;2.70;;
71562;SDS011;59391;52.504;13.438;2024-02-04T13:55:01;6.85;;;2.88;;
71562;SDS011;59391;52.504;13.438;2024-02-04T13:57:30;10.68;;;3.15;;
71562;SDS011;59391;52.504;13.438;2024-02-04T13:59:57;6.80;;;3.05;;
71562;SDS011;59391;52.504;13.438;2024-02-04T14:02:22;7.70;;;2.77;;
71562;SDS011;59391;52.504;13.438;2024-02-04T14:04:50;10.32;;;3.38;;
71562;SDS011;59391;52.504;13.438;2024-02-04T14:07:16;7.50;;;3.30;;
71562;SDS011;59391;52.504;13.438;2024-02-04T14:09:41;7.93;;;3.30;;
71562;SDS011;59391;52.504;13.438;2024-02-04T14:12:07;10.03;;;3.43;;
71562;SDS011;59391;52.504;13.438;2024-02-04T14:14:33;7.18;;;3.22;;
71562;SDS011;59391;52.504;13.438;2024-02-04T14:16:59;8.07;;;2.90;;
71562;SDS011;59391;52.504;13.438;2024-02-04T14:19:24;7.27;;;3.00;;
71562;SDS011;59391;52.504;13.438;2024-02-04T14:21:50;6.50;;;3.03;;
71562;SDS011;59391;52.504;13.438;2024-02-04T14:24:16;10.20;;;3.20;;
71562;SDS011;59391;52.504;13.438;2024-02-04T14:26:42;8.02;;;3.58;;
71562;SDS011;59391;52.504;13.438;2024-02-04T14:29:18;7.07;;;3.00;;
71562;SDS011;59391;52.504;13.438;2024-02-04T14:31:43;10.68;;;3.13;;
71562;SDS011;59391;52.504;13.438;2024-02-04T14:34:12;9.88;;;2.90;;
71562;SDS011;59391;52.504;13.438;2024-02-04T14:36:37;9.23;;;3.83;;
71562;SDS011;59391;52.504;13.438;2024-02-04T14:39:03;12.52;;;3.33;;
71562;SDS011;59391;52.504;13.438;2024-02-04T14:41:30;8.98;;;3.50;;